createdAt,value
2023-01-30T00:01:17.129Z,32.75
2023-01-30T00:03:43.709Z,34.20
2023-01-30T00:06:11.152Z,34.50
2023-01-30T00:08:37.783Z,33.25
2023-01-30T00:11:08.584Z,35.90
2023-01-30T00:13:36.116Z,33.00
2023-01-30T00:16:03.281Z,34.10
2023-01-30T00:18:29.914Z,31.95
2023-01-30T00:21:01.051Z,34.63
2023-01-30T00:23:28.570Z,40.40
2023-01-30T00:25:55.659Z,38.33
2023-01-30T00:28:23.121Z,35.63
2023-01-30T00:30:54.090Z,39.30
2023-01-30T00:33:25.255Z,35.97
2023-01-30T00:35:53.780Z,37.88
2023-01-30T00:38:21.276Z,35.95
2023-01-30T00:40:48.773Z,39.97
2023-01-30T00:43:36.717Z,36.85
2023-01-30T00:46:24.870Z,37.25
2023-01-30T00:48:53.102Z,34.65
2023-01-30T00:51:19.682Z,36.85
2023-01-30T00:53:47.296Z,36.88
2023-01-30T00:56:14.121Z,32.97
2023-01-30T00:58:41.297Z,34.40
2023-01-30T01:01:11.112Z,38.17
2023-01-30T01:03:37.703Z,36.97
2023-01-30T01:06:04.467Z,34.88
2023-01-30T01:08:31.110Z,33.63
2023-01-30T01:10:57.812Z,37.47
2023-01-30T01:13:25.289Z,34.17
2023-01-30T01:15:51.886Z,35.28
2023-01-30T01:18:18.555Z,37.13
2023-01-30T01:20:46.061Z,36.03
2023-01-30T01:23:12.649Z,37.65
2023-01-30T01:25:39.480Z,36.53
2023-01-30T01:28:06.538Z,34.58
2023-01-30T01:30:33.178Z,33.13
2023-01-30T01:32:59.855Z,39.33
2023-01-30T01:35:27.882Z,36.47
2023-01-30T01:37:55.008Z,33.70
2023-01-30T01:40:41.316Z,39.55
2023-01-30T01:43:23.052Z,31.88
2023-01-30T01:45:57.519Z,34.60
2023-01-30T01:48:32.651Z,37.45
2023-01-30T01:51:06.006Z,38.08
2023-01-30T01:53:39.357Z,35.35
2023-01-30T01:56:07.962Z,33.45
2023-01-30T01:58:43.118Z,33.03
2023-01-30T02:01:09.781Z,37.25
2023-01-30T02:03:42.507Z,36.20
2023-01-30T02:06:11.971Z,33.28
2023-01-30T02:08:48.002Z,32.53
2023-01-30T02:11:27.241Z,30.83
2023-01-30T02:13:54.619Z,31.90
2023-01-30T02:16:21.629Z,31.35
2023-01-30T02:18:48.634Z,34.42
2023-01-30T02:21:46.296Z,35.22
2023-01-30T02:24:31.711Z,36.67
2023-01-30T02:27:15.444Z,34.83
2023-01-30T02:29:55.935Z,34.78
2023-01-30T02:32:46.176Z,38.83
2023-01-30T02:35:29.186Z,34.28
2023-01-30T02:38:16.664Z,35.35
2023-01-30T02:40:57.716Z,36.50
2023-01-30T02:43:29.127Z,32.13
2023-01-30T02:46:02.785Z,33.05
2023-01-30T02:48:40.911Z,33.33
2023-01-30T02:51:14.174Z,36.22
2023-01-30T02:53:41.140Z,33.00
2023-01-30T02:56:07.973Z,34.97
2023-01-30T02:58:42.304Z,33.17
2023-01-30T03:01:40.815Z,34.58
2023-01-30T03:04:29.543Z,38.63
2023-01-30T03:07:26.283Z,36.58
2023-01-30T03:10:13.911Z,35.33
2023-01-30T03:13:05.418Z,36.85
2023-01-30T03:15:57.390Z,35.30
2023-01-30T03:18:24.222Z,35.03
2023-01-30T03:20:52.591Z,36.28
2023-01-30T03:23:19.477Z,40.83
2023-01-30T03:25:47.656Z,36.42
2023-01-30T03:28:18.394Z,33.60
2023-01-30T03:30:45.097Z,34.15
2023-01-30T03:33:11.744Z,34.88
2023-01-30T03:35:40.265Z,34.67
2023-01-30T03:38:07.087Z,40.28
2023-01-30T03:40:34.871Z,35.55
2023-01-30T03:43:02.328Z,36.78
2023-01-30T03:45:28.972Z,37.38
2023-01-30T03:47:55.628Z,37.75
2023-01-30T03:50:22.197Z,37.10
2023-01-30T03:52:48.901Z,42.13
2023-01-30T03:55:19.417Z,35.65
2023-01-30T03:57:46.807Z,37.83
2023-01-30T04:00:15.092Z,36.65
2023-01-30T04:02:47.507Z,36.90
2023-01-30T04:05:17.580Z,35.00
2023-01-30T04:07:50.678Z,35.42
2023-01-30T04:10:19.949Z,43.00
2023-01-30T04:12:47.668Z,41.67
2023-01-30T04:15:14.525Z,37.80
2023-01-30T04:17:49.386Z,35.63
2023-01-30T04:20:16.334Z,32.67
2023-01-30T04:22:48.721Z,38.17
2023-01-30T04:25:16.601Z,38.25
2023-01-30T04:27:44.388Z,36.90
2023-01-30T04:30:27.665Z,34.97
2023-01-30T04:33:06.663Z,36.55
2023-01-30T04:35:33.294Z,34.75
2023-01-30T04:37:59.887Z,36.90
2023-01-30T04:40:27.278Z,37.05
2023-01-30T04:42:54.939Z,36.38
2023-01-30T04:45:43.362Z,31.25
2023-01-30T04:48:10.280Z,38.30
2023-01-30T04:50:37.024Z,36.85
2023-01-30T04:53:03.882Z,30.75
2023-01-30T04:55:30.607Z,37.55
2023-01-30T04:57:57.411Z,37.30
2023-01-30T05:00:25.791Z,37.17
2023-01-30T05:02:57.318Z,35.25
2023-01-30T05:05:24.799Z,32.80
2023-01-30T05:07:51.490Z,36.38
2023-01-30T05:10:18.474Z,35.40
2023-01-30T05:12:45.619Z,40.17
2023-01-30T05:15:13.658Z,41.15
2023-01-30T05:17:41.967Z,46.13
2023-01-30T05:20:10.570Z,38.15
2023-01-30T05:22:37.195Z,39.28
2023-01-30T05:25:04.239Z,37.67
2023-01-30T05:27:30.844Z,35.80
2023-01-30T05:29:57.444Z,37.33
2023-01-30T05:32:25.631Z,37.90
2023-01-30T05:34:52.195Z,38.78
2023-01-30T05:37:18.793Z,39.00
2023-01-30T05:39:45.350Z,34.08
2023-01-30T05:42:11.941Z,38.95
2023-01-30T05:44:38.502Z,29.33
2023-01-30T05:47:05.066Z,29.42
2023-01-30T05:49:31.753Z,33.22
2023-01-30T05:51:58.326Z,30.65
2023-01-30T05:54:25.158Z,36.05
2023-01-30T05:56:51.822Z,33.55
2023-01-30T05:59:21.237Z,33.13
2023-01-30T06:01:47.805Z,32.63
2023-01-30T06:04:14.636Z,34.20
2023-01-30T06:06:41.193Z,36.70
2023-01-30T06:09:10.564Z,32.15
2023-01-30T06:11:37.138Z,33.28
2023-01-30T06:14:03.855Z,33.42
2023-01-30T06:16:30.608Z,32.22
2023-01-30T06:18:57.271Z,32.70
2023-01-30T06:21:23.911Z,37.33
2023-01-30T06:23:50.549Z,30.77
2023-01-30T06:26:17.262Z,36.35
2023-01-30T06:28:44.242Z,35.30
2023-01-30T06:31:11.474Z,35.97
2023-01-30T06:33:38.187Z,37.63
2023-01-30T06:36:05.005Z,38.67
2023-01-30T06:38:31.636Z,36.22
2023-01-30T06:40:59.105Z,39.20
2023-01-30T06:43:25.694Z,35.08
2023-01-30T06:45:52.417Z,37.42
2023-01-30T06:48:19.692Z,37.30
2023-01-30T06:50:48.022Z,32.95
2023-01-30T06:53:14.661Z,33.60
2023-01-30T06:55:41.320Z,34.63
2023-01-30T06:58:12.768Z,33.80
2023-01-30T07:00:41.157Z,30.98
2023-01-30T07:03:15.445Z,29.98
2023-01-30T07:05:43.733Z,28.35
2023-01-30T07:08:10.653Z,26.30
2023-01-30T07:10:38.052Z,28.90
2023-01-30T07:13:04.878Z,24.90
2023-01-30T07:15:32.416Z,26.67
2023-01-30T07:17:59.944Z,29.02
2023-01-30T07:20:26.777Z,25.10
2023-01-30T07:22:55.612Z,24.40
2023-01-30T07:25:25.041Z,25.83
2023-01-30T07:27:55.530Z,25.15
2023-01-30T07:30:22.155Z,26.73
2023-01-30T07:32:57.828Z,26.98
2023-01-30T07:35:26.997Z,24.20
2023-01-30T07:37:53.739Z,24.92
2023-01-30T07:40:21.711Z,26.23
2023-01-30T07:43:06.778Z,26.50
2023-01-30T07:45:46.837Z,25.08
2023-01-30T07:48:16.611Z,25.80
2023-01-30T07:50:43.809Z,23.48
2023-01-30T07:53:16.014Z,24.27
2023-01-30T07:55:42.853Z,23.58
2023-01-30T07:58:14.501Z,24.67
2023-01-30T08:00:41.176Z,21.93
2023-01-30T08:03:15.240Z,26.60
2023-01-30T08:05:41.862Z,24.73
2023-01-30T08:08:08.770Z,23.60
2023-01-30T08:10:35.381Z,26.52
2023-01-30T08:13:02.001Z,23.50
2023-01-30T08:15:28.749Z,21.83
2023-01-30T08:17:56.521Z,20.73
2023-01-30T08:20:24.014Z,17.85
2023-01-30T08:22:50.575Z,22.48
2023-01-30T08:25:17.212Z,20.70
2023-01-30T08:27:43.933Z,19.85
2023-01-30T08:30:11.863Z,21.92
2023-01-30T08:32:38.477Z,19.75
2023-01-30T08:35:05.470Z,20.50
2023-01-30T08:37:32.071Z,22.35
2023-01-30T08:39:58.664Z,21.05
2023-01-30T08:42:25.241Z,20.08
2023-01-30T08:44:51.790Z,20.33
2023-01-30T08:47:18.377Z,20.35
2023-01-30T08:49:44.903Z,18.10
2023-01-30T08:52:11.450Z,17.70
2023-01-30T08:54:38.040Z,17.13
2023-01-30T08:57:04.640Z,17.40
2023-01-30T08:59:31.183Z,18.75
2023-01-30T09:01:57.784Z,15.25
2023-01-30T09:04:26.357Z,18.00
2023-01-30T09:06:53.056Z,16.17
2023-01-30T09:09:19.696Z,14.15
2023-01-30T09:11:48.083Z,18.17
2023-01-30T09:14:19.824Z,14.38
2023-01-30T09:16:56.387Z,16.15
2023-01-30T09:19:27.314Z,14.57
2023-01-30T09:21:55.249Z,15.68
2023-01-30T09:24:26.646Z,13.50
2023-01-30T09:26:57.097Z,14.50
2023-01-30T09:29:23.995Z,14.65
2023-01-30T09:31:50.743Z,13.15
2023-01-30T09:34:17.449Z,15.23
2023-01-30T09:36:44.197Z,14.52
2023-01-30T09:39:10.793Z,11.80
2023-01-30T09:41:58.780Z,14.40
2023-01-30T09:44:56.105Z,12.38
2023-01-30T09:47:41.517Z,14.68
2023-01-30T09:50:26.011Z,14.73
2023-01-30T09:53:02.606Z,12.73
2023-01-30T09:55:32.606Z,12.95
2023-01-30T09:58:00.489Z,16.30
2023-01-30T10:00:32.192Z,13.07
2023-01-30T10:03:15.051Z,14.52
2023-01-30T10:06:10.118Z,14.80
2023-01-30T10:09:06.814Z,12.38
2023-01-30T10:11:54.508Z,11.88
2023-01-30T10:14:33.822Z,12.45
2023-01-30T10:17:38.207Z,12.63
2023-01-30T10:21:00.273Z,15.10
2023-01-30T10:23:35.989Z,11.60
2023-01-30T10:26:14.429Z,12.38
2023-01-30T10:28:55.573Z,12.48
2023-01-30T10:31:33.798Z,13.57
2023-01-30T10:34:14.698Z,12.82
2023-01-30T10:36:45.603Z,13.52
2023-01-30T10:39:55.936Z,14.80
2023-01-30T10:43:04.762Z,14.93
2023-01-30T10:45:54.716Z,12.25
2023-01-30T10:48:43.297Z,12.20
2023-01-30T10:51:23.305Z,10.38
2023-01-30T10:54:03.379Z,11.27
2023-01-30T10:56:36.457Z,11.68
2023-01-30T10:59:12.152Z,8.60
2023-01-30T11:01:50.157Z,11.65
2023-01-30T11:04:44.118Z,11.75
2023-01-30T11:07:12.493Z,10.23
2023-01-30T11:09:48.338Z,9.32
2023-01-30T11:12:15.632Z,9.60
2023-01-30T11:15:00.822Z,9.43
2023-01-30T11:17:38.484Z,8.25
2023-01-30T11:20:22.593Z,7.68
2023-01-30T11:23:04.939Z,6.68
2023-01-30T11:25:31.654Z,7.43
2023-01-30T11:28:04.095Z,8.02
2023-01-30T11:33:16.780Z,7.57
2023-01-30T11:36:05.383Z,7.25
2023-01-30T11:38:34.642Z,6.93
2023-01-30T11:41:22.145Z,8.35
2023-01-30T11:43:49.252Z,9.32
2023-01-30T11:46:20.568Z,9.73
2023-01-30T11:49:45.635Z,8.35
2023-01-30T11:51:43.261Z,7.13
2023-01-30T11:54:31.795Z,6.00
2023-01-30T11:57:01.890Z,5.15
2023-01-30T11:59:38.584Z,7.97
2023-01-30T12:02:25.309Z,7.90
2023-01-30T12:04:59.334Z,6.70
2023-01-30T12:07:30.988Z,7.63
2023-01-30T12:09:58.819Z,8.48
2023-01-30T12:12:28.023Z,8.85
2023-01-30T12:15:02.985Z,8.18
2023-01-30T12:17:52.736Z,6.32
2023-01-30T12:20:43.357Z,7.80
2023-01-30T12:23:15.068Z,7.20
2023-01-30T12:25:52.626Z,7.25
2023-01-30T12:28:27.602Z,8.80
2023-01-30T12:31:40.579Z,6.60
2023-01-30T12:34:09.722Z,8.57
2023-01-30T12:36:42.294Z,7.18
2023-01-30T12:39:43.959Z,7.95
2023-01-30T12:42:38.261Z,7.50
2023-01-30T12:45:22.525Z,8.18
2023-01-30T12:48:08.035Z,6.97
2023-01-30T12:50:54.294Z,8.48
2023-01-30T12:53:39.039Z,7.57
2023-01-30T12:56:29.188Z,7.95
2023-01-30T12:59:13.027Z,6.88
2023-01-30T13:01:45.372Z,8.88
2023-01-30T13:04:29.818Z,7.53
2023-01-30T13:07:17.243Z,6.35
2023-01-30T13:10:00.576Z,8.48
2023-01-30T13:12:43.119Z,7.72
2023-01-30T13:15:18.398Z,8.98
2023-01-30T13:17:53.187Z,6.53
2023-01-30T13:20:47.391Z,12.63
2023-01-30T13:23:22.335Z,10.07
2023-01-30T13:26:07.709Z,8.90
2023-01-30T13:28:43.592Z,7.55
2023-01-30T13:31:14.066Z,7.82
2023-01-30T13:33:44.779Z,7.57
2023-01-30T13:36:24.477Z,7.57
2023-01-30T13:39:06.848Z,9.32
2023-01-30T13:41:42.431Z,8.80
2023-01-30T13:44:31.461Z,9.88
2023-01-30T13:47:27.818Z,8.52
2023-01-30T13:50:30.609Z,9.63
2023-01-30T13:53:08.547Z,9.57
2023-01-30T13:55:47.629Z,10.25
2023-01-30T13:58:17.788Z,9.95
2023-01-30T14:00:55.579Z,10.80
2023-01-30T14:03:25.257Z,9.02
2023-01-30T14:05:54.468Z,9.27
2023-01-30T14:08:25.499Z,9.50
2023-01-30T14:10:52.911Z,12.18
2023-01-30T14:13:19.530Z,9.57
2023-01-30T14:16:01.285Z,8.25
2023-01-30T14:18:36.162Z,8.37
2023-01-30T14:21:17.087Z,9.20
2023-01-30T14:24:04.607Z,10.32
2023-01-30T14:26:53.110Z,9.13
2023-01-30T14:29:42.894Z,8.00
2023-01-30T14:32:12.807Z,10.63
2023-01-30T14:34:43.021Z,7.25
2023-01-30T14:37:28.241Z,9.93
2023-01-30T14:39:57.111Z,8.88
2023-01-30T14:42:26.504Z,8.75
2023-01-30T14:45:02.262Z,9.70
2023-01-30T14:47:33.875Z,8.38
2023-01-30T14:50:24.601Z,9.82
2023-01-30T14:52:56.368Z,9.20
2023-01-30T14:55:29.369Z,7.75
2023-01-30T14:58:04.099Z,8.93
2023-01-30T15:00:35.043Z,9.52
2023-01-30T15:03:07.156Z,8.38
2023-01-30T15:05:42.604Z,8.38
2023-01-30T15:08:16.601Z,8.07
2023-01-30T15:11:19.055Z,8.35
2023-01-30T15:13:54.656Z,9.18
2023-01-30T15:16:39.333Z,9.82
2023-01-30T15:19:22.063Z,8.60
2023-01-30T15:24:23.639Z,7.25
2023-01-30T15:29:44.325Z,10.13
2023-01-30T15:32:25.600Z,8.50
2023-01-30T15:34:57.084Z,9.25
2023-01-30T15:37:32.600Z,8.00
2023-01-30T15:40:20.817Z,9.55
2023-01-30T15:42:56.498Z,8.00
2023-01-30T15:45:41.575Z,9.68
2023-01-30T15:48:20.106Z,9.45
2023-01-30T15:50:56.147Z,8.38
2023-01-30T15:53:35.969Z,10.23
2023-01-30T15:56:07.169Z,9.80
2023-01-30T15:58:41.174Z,11.85
2023-01-30T16:01:09.235Z,8.88
2023-01-30T16:03:42.775Z,8.98
2023-01-30T16:06:30.243Z,9.02
2023-01-30T16:09:00.736Z,8.50
2023-01-30T16:11:38.515Z,9.95
2023-01-30T16:14:06.528Z,10.57
2023-01-30T16:16:35.586Z,10.88
2023-01-30T16:19:06.684Z,9.95
2023-01-30T16:21:40.163Z,8.68
2023-01-30T16:24:15.946Z,9.52
2023-01-30T16:26:46.518Z,10.00
2023-01-30T16:29:17.876Z,8.90
2023-01-30T16:31:47.444Z,12.00
2023-01-30T16:34:31.975Z,8.23
2023-01-30T16:37:16.933Z,10.18
2023-01-30T16:39:45.712Z,11.30
2023-01-30T16:42:26.739Z,8.77
2023-01-30T16:45:12.114Z,9.32
2023-01-30T16:47:39.756Z,10.13
2023-01-30T16:50:20.213Z,8.75
2023-01-30T16:52:51.536Z,9.77
2023-01-30T16:55:21.213Z,9.25
2023-01-30T16:57:54.679Z,11.27
2023-01-30T17:00:40.816Z,9.05
2023-01-30T17:03:26.710Z,8.68
2023-01-30T17:05:54.171Z,9.10
2023-01-30T17:08:33.029Z,9.15
2023-01-30T17:11:01.186Z,12.32
2023-01-30T17:13:33.046Z,11.27
2023-01-30T17:16:35.308Z,13.23
2023-01-30T17:19:02.471Z,8.60
2023-01-30T17:21:36.177Z,8.65
2023-01-30T17:24:05.082Z,7.72
2023-01-30T17:26:32.868Z,8.77
2023-01-30T17:28:59.682Z,9.10
2023-01-30T17:31:27.043Z,8.00
2023-01-30T17:33:53.742Z,7.13
2023-01-30T17:36:27.433Z,9.65
2023-01-30T17:38:54.395Z,8.10
2023-01-30T17:41:28.443Z,7.53
2023-01-30T17:43:55.061Z,7.45
2023-01-30T17:46:35.810Z,9.45
2023-01-30T17:49:02.610Z,6.95
2023-01-30T17:51:29.302Z,7.28
2023-01-30T17:53:55.847Z,6.90
2023-01-30T17:56:27.652Z,8.10
2023-01-30T17:58:54.282Z,6.13
2023-01-30T18:01:20.918Z,6.68
2023-01-30T18:03:47.607Z,5.97
2023-01-30T18:06:15.647Z,7.88
2023-01-30T18:08:42.595Z,7.28
2023-01-30T18:11:11.742Z,7.05
2023-01-30T18:13:42.745Z,7.10
2023-01-30T18:16:17.259Z,7.10
2023-01-30T18:18:44.046Z,7.03
2023-01-30T18:21:10.832Z,7.55
2023-01-30T18:23:37.760Z,7.03
2023-01-30T18:26:05.155Z,7.95
2023-01-30T18:28:31.747Z,7.65
2023-01-30T18:30:58.676Z,7.38
2023-01-30T18:33:25.399Z,6.80
2023-01-30T18:35:51.988Z,7.22
2023-01-30T18:38:18.575Z,9.25
2023-01-30T18:40:45.152Z,7.55
2023-01-30T18:43:11.767Z,7.03
2023-01-30T18:45:38.398Z,7.07
2023-01-30T18:48:05.198Z,8.70
2023-01-30T18:50:31.797Z,7.03
2023-01-30T18:52:58.469Z,6.53
2023-01-30T18:55:25.668Z,7.47
2023-01-30T18:57:52.543Z,6.93
2023-01-30T19:00:21.281Z,8.00
2023-01-30T19:02:54.569Z,8.02
2023-01-30T19:05:21.393Z,7.93
2023-01-30T19:07:48.028Z,9.35
2023-01-30T19:10:17.301Z,10.75
2023-01-30T19:13:03.524Z,9.25
2023-01-30T19:15:30.218Z,7.47
2023-01-30T19:17:57.962Z,7.43
2023-01-30T19:20:25.220Z,6.72
2023-01-30T19:22:54.735Z,7.95
2023-01-30T19:25:21.570Z,8.68
2023-01-30T19:27:48.126Z,8.65
2023-01-30T19:30:15.069Z,7.53
2023-01-30T19:32:41.704Z,6.50
2023-01-30T19:35:09.090Z,7.38
2023-01-30T19:37:36.077Z,7.45
2023-01-30T19:40:08.483Z,9.38
2023-01-30T19:45:02.999Z,8.82
2023-01-30T19:47:29.743Z,9.50
2023-01-30T19:49:56.353Z,8.48
2023-01-30T19:52:22.937Z,9.02
2023-01-30T19:54:49.530Z,6.85
2023-01-30T19:57:16.067Z,8.30
2023-01-30T19:59:43.493Z,7.95
2023-01-30T20:02:11.365Z,7.80
2023-01-30T20:04:39.599Z,7.70
2023-01-30T20:07:06.220Z,8.77
2023-01-30T20:09:32.832Z,7.63
2023-01-30T20:11:59.703Z,7.18
2023-01-30T20:14:26.328Z,9.60
2023-01-30T20:16:53.092Z,7.93
2023-01-30T20:19:19.765Z,7.22
2023-01-30T20:21:46.395Z,7.28
2023-01-30T20:24:14.615Z,7.95
2023-01-30T20:26:41.501Z,6.47
2023-01-30T20:29:09.849Z,5.90
2023-01-30T20:31:38.839Z,6.22
2023-01-30T20:34:11.789Z,5.25
2023-01-30T20:36:38.380Z,6.72
2023-01-30T20:39:07.602Z,6.15
2023-01-30T20:41:35.776Z,6.22
2023-01-30T20:44:03.616Z,4.70
2023-01-30T20:46:35.276Z,6.07
2023-01-30T20:49:01.974Z,5.68
2023-01-30T20:51:31.522Z,5.88
2023-01-30T20:54:00.854Z,5.75
2023-01-30T20:56:32.761Z,5.30
2023-01-30T20:58:59.518Z,6.45
2023-01-30T21:01:26.158Z,6.22
2023-01-30T21:03:54.292Z,4.88
2023-01-30T21:06:41.281Z,6.25
2023-01-30T21:09:22.961Z,4.95
2023-01-30T21:11:51.119Z,3.72
2023-01-30T21:14:17.716Z,3.97
2023-01-30T21:16:44.881Z,4.88
2023-01-30T21:19:15.878Z,3.97
2023-01-30T21:21:54.435Z,3.65
2023-01-30T21:24:27.253Z,4.90
2023-01-30T21:26:54.575Z,5.57
2023-01-30T21:29:23.954Z,3.22
2023-01-30T21:31:51.272Z,3.83
2023-01-30T21:34:18.095Z,4.70
2023-01-30T21:37:04.773Z,5.28
2023-01-30T21:39:50.033Z,3.22
2023-01-30T21:42:34.997Z,4.47
2023-01-30T21:45:02.361Z,3.78
2023-01-30T21:47:29.120Z,6.40
2023-01-30T21:49:55.775Z,5.68
2023-01-30T21:52:22.383Z,6.15
2023-01-30T21:54:49.038Z,4.88
2023-01-30T21:57:15.604Z,6.18
2023-01-30T21:59:42.248Z,4.38
2023-01-30T22:02:10.551Z,4.55
2023-01-30T22:04:37.663Z,4.10
2023-01-30T22:07:06.715Z,4.10
2023-01-30T22:09:33.672Z,5.90
2023-01-30T22:12:00.263Z,4.07
2023-01-30T22:14:26.872Z,5.25
2023-01-30T22:16:53.505Z,4.60
2023-01-30T22:19:20.108Z,3.88
2023-01-30T22:21:46.650Z,4.00
2023-01-30T22:24:13.223Z,4.05
2023-01-30T22:26:39.839Z,5.28
2023-01-30T22:29:06.814Z,5.50
2023-01-30T22:31:36.232Z,4.32
2023-01-30T22:34:04.256Z,3.70
2023-01-30T22:36:32.755Z,4.43
2023-01-30T22:38:59.454Z,6.10
2023-01-30T22:41:27.785Z,3.28
2023-01-30T22:43:56.478Z,3.72
2023-01-30T22:46:25.470Z,2.95
2023-01-30T22:48:52.397Z,4.05
2023-01-30T22:51:23.204Z,3.22
2023-01-30T22:53:57.823Z,1.65
2023-01-30T22:56:30.193Z,2.95
2023-01-30T22:58:57.303Z,2.72
2023-01-30T23:01:26.704Z,3.53
2023-01-30T23:03:55.911Z,2.85
2023-01-30T23:06:23.011Z,1.75
2023-01-30T23:08:50.332Z,3.22
2023-01-30T23:11:20.176Z,3.30
2023-01-30T23:13:51.841Z,2.63
2023-01-30T23:16:22.487Z,3.08
2023-01-30T23:18:55.712Z,5.22
2023-01-30T23:21:37.848Z,2.22
2023-01-30T23:24:08.791Z,3.45
2023-01-30T23:26:38.536Z,2.83
2023-01-30T23:29:08.155Z,2.40
2023-01-30T23:31:36.258Z,2.85
2023-01-30T23:34:06.270Z,2.40
2023-01-30T23:36:34.220Z,3.13
2023-01-30T23:39:01.420Z,3.08
2023-01-30T23:41:30.488Z,1.70
2023-01-30T23:43:58.543Z,2.75
2023-01-30T23:46:40.063Z,3.28
2023-01-30T23:49:12.037Z,1.50
2023-01-30T23:51:40.718Z,2.08
2023-01-30T23:54:08.734Z,3.35
2023-01-30T23:56:38.772Z,2.53
2023-01-30T23:59:06.232Z,4.65
